createdAt,value
2018-04-29T00:00:11.627Z,79.77
2018-04-29T00:01:10.863Z,81.02
2018-04-29T00:02:10.865Z,78.14
2018-04-29T00:03:10.864Z,77.09
2018-04-29T00:04:10.883Z,78.01
2018-04-29T00:05:11.987Z,78.68
2018-04-29T00:06:10.863Z,79.93
2018-04-29T00:07:10.861Z,81.74
2018-04-29T00:08:10.873Z,83.84
2018-04-29T00:09:10.868Z,85.09
2018-04-29T00:10:11.846Z,86.14
2018-04-29T00:11:10.605Z,86.8
2018-04-29T00:12:10.866Z,90.06
2018-04-29T00:13:10.609Z,90.25
2018-04-29T00:14:10.870Z,88.87
2018-04-29T00:15:12.028Z,88.68
2018-04-29T00:16:10.856Z,87.24
2018-04-29T00:17:10.605Z,88.39
2018-04-29T00:18:10.870Z,85.05
2018-04-29T00:19:10.860Z,85.57
2018-04-29T00:20:11.713Z,85.75
2018-04-29T00:21:10.585Z,85.09
2018-04-29T00:22:10.833Z,83.46
2018-04-29T00:23:10.829Z,83.94
2018-04-29T00:24:10.838Z,82.31
2018-04-29T00:25:11.403Z,83.17
2018-04-29T00:26:10.845Z,83.65
2018-04-29T00:27:10.837Z,83.75
2018-04-29T00:28:10.832Z,82.31
2018-04-29T00:29:10.825Z,82.89
2018-04-29T00:30:11.988Z,83.08
2018-04-29T00:31:10.825Z,82.6
2018-04-29T00:32:10.829Z,83.12
2018-04-29T00:33:10.565Z,84.27
2018-04-29T00:34:10.815Z,82.07
2018-04-29T00:35:11.966Z,81.4
2018-04-29T00:36:10.815Z,82.35
2018-04-29T00:37:10.568Z,83.69
2018-04-29T00:38:10.832Z,85.61
2018-04-29T00:39:10.814Z,85.13
2018-04-29T00:40:11.759Z,81.78
2018-04-29T00:41:10.567Z,79.96
2018-04-29T00:42:10.819Z,79.1
2018-04-29T00:43:10.820Z,79.39
2018-04-29T00:44:10.556Z,78.53
2018-04-29T00:45:11.698Z,77.86
2018-04-29T00:46:10.814Z,77.67
2018-04-29T00:47:10.819Z,79.1
2018-04-29T00:48:10.813Z,79.58
2018-04-29T00:49:10.816Z,79
2018-04-29T00:58:04.660Z,84.36
2018-04-29T00:59:04.756Z,84.75
2018-04-29T01:00:04.681Z,86.57
2018-04-29T01:01:04.414Z,87.71
2018-04-29T01:02:04.419Z,88.19
2018-04-29T01:03:05.006Z,88.48
2018-04-29T01:04:04.661Z,88.48
2018-04-29T01:05:04.664Z,88.86
2018-04-29T01:06:04.490Z,89.01
2018-04-29T01:07:04.687Z,89.77
2018-04-29T01:08:05.004Z,90.1
2018-04-29T01:09:04.401Z,90.77
2018-04-29T01:10:04.404Z,91.73
2018-04-29T01:11:04.435Z,92.59
2018-04-29T01:12:04.657Z,92.78
2018-04-29T01:13:05.502Z,92.88
2018-04-29T01:14:04.392Z,93.16
2018-04-29T01:15:04.642Z,87.95
2018-04-29T01:16:04.639Z,85.22
2018-04-29T01:17:04.393Z,85.03
2018-04-29T01:18:04.952Z,84.55
2018-04-29T01:19:04.640Z,84.75
2018-04-29T01:20:04.394Z,86.66
2018-04-29T01:21:04.641Z,87.14
2018-04-29T01:22:04.391Z,87.04
2018-04-29T01:23:04.456Z,86.37
2018-04-29T01:24:04.383Z,86.47
2018-04-29T01:25:04.631Z,88.15
2018-04-29T01:26:04.635Z,87.38
2018-04-29T01:27:04.398Z,87.48
2018-04-29T01:28:04.699Z,88.72
2018-04-29T01:29:04.379Z,89.48
2018-04-29T01:30:04.378Z,88.53
2018-04-29T01:31:04.630Z,88.53
2018-04-29T01:32:04.625Z,89.2
2018-04-29T01:33:04.621Z,87.29
2018-04-29T01:34:04.372Z,87.95
2018-04-29T01:35:04.618Z,89.24
2018-04-29T01:36:04.621Z,87.81
2018-04-29T01:37:04.621Z,86.94
2018-04-29T01:38:04.612Z,86.37
2018-04-29T01:39:04.608Z,86.28
2018-04-29T01:40:04.611Z,86.57
2018-04-29T01:41:04.618Z,85.8
2018-04-29T01:42:04.362Z,85.8
2018-04-29T01:43:04.355Z,86.28
2018-04-29T01:44:04.609Z,85.51
2018-04-29T01:45:04.617Z,85.22
2018-04-29T01:46:04.609Z,85.03
2018-04-29T01:47:04.358Z,84.46
2018-04-29T01:48:04.601Z,85.61
2018-04-29T01:49:04.604Z,84.08
2018-04-29T01:50:04.601Z,82.17
2018-04-29T01:51:04.350Z,82.31
2018-04-29T01:52:04.603Z,81.55
2018-04-29T01:53:04.602Z,81.11
2018-04-29T01:54:04.672Z,80.02
2018-04-29T01:55:04.591Z,79.25
2018-04-29T01:56:04.348Z,78.24
2018-04-29T01:57:04.587Z,77.95
2018-04-29T01:58:04.587Z,78.53
2018-04-29T01:59:04.340Z,78.81
2018-04-29T02:00:04.584Z,79.77
2018-04-29T02:01:04.579Z,79.2
2018-04-29T02:02:04.588Z,79.39
2018-04-29T02:03:04.578Z,79.73
2018-04-29T02:04:04.578Z,80.63
2018-04-29T02:05:04.579Z,78.72
2018-04-29T02:06:04.572Z,78.34
2018-04-29T02:07:04.323Z,77.76
2018-04-29T02:08:04.323Z,79.49
2018-04-29T02:09:04.577Z,80.21
2018-04-29T02:10:04.576Z,80.4
2018-04-29T02:11:04.323Z,81.68
2018-04-29T02:12:04.569Z,79.77
2018-04-29T02:13:04.570Z,81.26
2018-04-29T02:14:04.315Z,82.54
2018-04-29T02:15:04.320Z,82.54
2018-04-29T02:16:04.313Z,83.22
2018-04-29T02:17:04.313Z,83.79
2018-04-29T02:18:04.315Z,84.46
2018-04-29T02:19:04.557Z,83.94
2018-04-29T02:20:04.605Z,85.85
2018-04-29T02:21:04.559Z,85.38
2018-04-29T02:22:04.325Z,85.47
2018-04-29T02:23:04.556Z,84.61
2018-04-29T02:24:04.623Z,83.27
2018-04-29T02:25:04.564Z,82.22
2018-04-29T02:26:04.562Z,82.98
2018-04-29T02:27:04.301Z,82.31
2018-04-29T02:28:04.299Z,82.6
2018-04-29T02:29:04.547Z,83.08
2018-04-29T02:30:04.547Z,83.56
2018-04-29T02:31:04.548Z,83.46
2018-04-29T02:32:04.551Z,84.23
2018-04-29T02:33:04.559Z,84.23
2018-04-29T02:34:04.547Z,83.37
2018-04-29T02:35:04.546Z,82.12
2018-04-29T02:36:04.293Z,82.31
2018-04-29T02:37:04.564Z,82.51
2018-04-29T02:38:04.542Z,82.31
2018-04-29T02:39:04.538Z,83.42
2018-04-29T02:40:04.300Z,82.6
2018-04-29T02:41:04.537Z,82.6
2018-04-29T02:42:04.544Z,82.37
2018-04-29T02:43:04.529Z,84.28
2018-04-29T02:44:04.284Z,84.95
2018-04-29T02:45:04.287Z,84.38
2018-04-29T02:46:04.528Z,83.9
2018-04-29T02:47:04.285Z,84.89
2018-04-29T02:48:04.532Z,83.99
2018-04-29T02:49:04.525Z,83.23
2018-04-29T02:50:04.531Z,84.28
2018-04-29T02:51:04.519Z,83.8
2018-04-29T02:52:04.520Z,83.7
2018-04-29T02:53:04.528Z,82.94
2018-04-29T02:54:04.521Z,83.33
2018-04-29T02:55:04.517Z,83.8
2018-04-29T02:56:04.524Z,82.65
2018-04-29T02:57:04.529Z,83.61
2018-04-29T02:58:04.523Z,84.47
2018-04-29T02:59:04.506Z,83.7
2018-04-29T03:00:04.525Z,82.94
2018-04-29T03:01:04.622Z,81.7
2018-04-29T03:02:04.509Z,81.7
2018-04-29T03:03:04.501Z,82.37
2018-04-29T03:04:04.498Z,81.7
2018-04-29T03:05:04.504Z,84.28
2018-04-29T03:06:04.501Z,84.19
2018-04-29T03:07:04.495Z,82.18
2018-04-29T03:08:04.496Z,81.32
2018-04-29T03:09:04.494Z,83.51
2018-04-29T03:10:04.491Z,84.19
2018-04-29T03:11:04.495Z,83.04
2018-04-29T03:12:04.497Z,81.03
2018-04-29T03:13:04.482Z,80.36
2018-04-29T03:14:04.486Z,80.84
2018-04-29T03:15:04.238Z,80.65
2018-04-29T03:16:04.234Z,81.51
2018-04-29T03:17:04.227Z,82.28
2018-04-29T03:18:04.487Z,82.37
2018-04-29T03:19:04.485Z,83.42
2018-04-29T03:20:04.498Z,83.99
2018-04-29T03:21:04.471Z,83.57
2018-04-29T03:22:04.753Z,84.09
2018-04-29T03:23:04.472Z,83.8
2018-04-29T03:24:04.605Z,83.8
2018-04-29T03:25:04.606Z,84.72
2018-04-29T03:26:04.330Z,84.05
2018-04-29T03:27:04.318Z,84.76
2018-04-29T03:28:04.214Z,84.23
2018-04-29T03:29:04.464Z,84.91
2018-04-29T03:38:13.921Z,86.24
2018-04-29T03:39:13.921Z,86.24
2018-04-29T03:40:15.396Z,86.15
2018-04-29T03:41:13.928Z,85.67
2018-04-29T03:42:13.663Z,86.15
2018-04-29T03:43:15.539Z,87.39
2018-04-29T03:44:13.914Z,87.39
2018-04-29T03:45:14.599Z,86.63
2018-04-29T03:46:13.930Z,86.63
2018-04-29T03:47:13.902Z,86.63
2018-04-29T03:48:13.902Z,87.01
2018-04-29T03:49:13.660Z,87.29
2018-04-29T03:50:14.585Z,88.54
2018-04-29T03:51:13.912Z,89.39
2018-04-29T03:52:13.911Z,89.49
2018-04-29T03:53:13.913Z,88.82
2018-04-29T03:54:13.888Z,89.92
2018-04-29T03:55:14.709Z,89.39
2018-04-29T03:56:13.906Z,89.83
2018-04-29T03:57:13.634Z,90.5
2018-04-29T03:58:13.630Z,90.78
2018-04-29T03:59:13.877Z,91.64
2018-04-29T04:00:15.284Z,90.88
2018-04-29T04:01:13.873Z,91.16
2018-04-29T04:02:13.874Z,91.55
2018-04-29T04:03:13.874Z,93.46
2018-04-29T04:04:13.868Z,93.46
2018-04-29T04:05:15.325Z,93.36
2018-04-29T04:06:13.620Z,93.36
2018-04-29T04:07:13.906Z,93.36
2018-04-29T04:08:13.858Z,93.07
2018-04-29T04:09:13.858Z,93.36
2018-04-29T04:10:14.833Z,94.03
2018-04-29T04:11:13.610Z,94.98
2018-04-29T04:12:13.851Z,95.75
2018-04-29T04:13:13.846Z,95.94
2018-04-29T04:14:13.856Z,95.65
2018-04-29T04:15:15.234Z,96.22
2018-04-29T04:16:13.593Z,96.61
2018-04-29T04:17:13.840Z,95.46
2018-04-29T04:18:13.839Z,95.36
2018-04-29T04:19:13.839Z,95.46
2018-04-29T04:20:14.787Z,95.89
2018-04-29T04:21:13.835Z,96.42
2018-04-29T04:22:13.838Z,98.08
2018-04-29T04:23:13.577Z,98.9
2018-04-29T04:24:13.831Z,98.32
2018-04-29T04:25:14.547Z,97.51
2018-04-29T04:26:13.820Z,97.08
2018-04-29T04:27:13.816Z,97.03
2018-04-29T04:28:13.569Z,97.03
2018-04-29T04:29:13.818Z,97.13
2018-04-29T04:30:15.052Z,97.32
2018-04-29T04:31:13.813Z,97.03
2018-04-29T04:32:13.813Z,97.42
2018-04-29T04:33:13.800Z,97.42
2018-04-29T04:34:13.935Z,97.71
2018-04-29T04:35:15.140Z,97.61
2018-04-29T04:36:13.561Z,98.27
2018-04-29T04:37:13.795Z,98.27
2018-04-29T04:38:13.793Z,98.56
2018-04-29T04:39:13.568Z,98.85
2018-04-29T04:40:14.974Z,98.56
2018-04-29T04:41:13.783Z,98.37
2018-04-29T04:42:13.533Z,98.66
2018-04-29T04:43:13.538Z,98.66
2018-04-29T04:44:13.776Z,98.66
2018-04-29T04:45:15.017Z,98.85
2018-04-29T04:46:13.787Z,99.9
2018-04-29T04:47:13.841Z,99.99
2018-04-29T04:48:13.766Z,99.99
2018-04-29T04:49:13.816Z,99.52
2018-04-29T04:50:15.160Z,99.47
2018-04-29T04:51:13.758Z,99.66
2018-04-29T04:52:13.759Z,99.99
2018-04-29T04:53:13.756Z,99.99
2018-04-29T04:54:13.755Z,99.99
2018-04-29T04:55:15.083Z,99.66
2018-04-29T04:56:13.751Z,99.28
2018-04-29T04:57:13.745Z,99.71
2018-04-29T04:58:13.910Z,98.94
2018-04-29T04:59:13.499Z,98.28
2018-04-29T05:00:15.164Z,97.8
2018-04-29T05:01:13.741Z,97.32
2018-04-29T05:02:13.734Z,97.13
2018-04-29T05:03:13.491Z,95.89
2018-04-29T05:04:13.743Z,95.03
2018-04-29T05:05:14.400Z,95.56
2018-04-29T05:06:13.735Z,95.84
2018-04-29T05:07:13.511Z,95.61
2018-04-29T05:08:13.730Z,93.02
2018-04-29T05:09:13.479Z,89.62
2018-04-29T05:10:14.625Z,88.52
2018-04-29T05:11:13.728Z,86.27
2018-04-29T05:12:13.477Z,80.27
2018-04-29T05:13:13.782Z,78.55
2018-04-29T05:14:13.735Z,78.27
2018-04-29T05:15:15.030Z,78.55
2018-04-29T05:16:13.481Z,78.64
2018-04-29T05:17:13.730Z,79.32
2018-04-29T05:18:13.731Z,79.03
2018-04-29T05:19:13.482Z,78.84
2018-04-29T05:20:14.866Z,78.51
2018-04-29T05:21:13.735Z,78.99
2018-04-29T05:22:13.834Z,80.08
2018-04-29T05:23:13.738Z,80.18
2018-04-29T05:24:13.481Z,79.03
2018-04-29T05:25:15.169Z,79.03
2018-04-29T05:26:13.748Z,79.95
2018-04-29T05:27:13.738Z,80.04
2018-04-29T05:28:13.734Z,81.48
2018-04-29T05:29:13.738Z,81.67
2018-04-29T05:30:14.824Z,83.36
2018-04-29T05:31:13.806Z,85.08
2018-04-29T05:32:13.737Z,84.59
2018-04-29T05:33:13.489Z,83.01
2018-04-29T05:34:13.739Z,81.57
2018-04-29T05:35:14.863Z,79.03
2018-04-29T05:36:13.745Z,77.34
2018-04-29T05:37:13.743Z,75.95
2018-04-29T05:38:13.744Z,73.97
2018-04-29T05:39:13.744Z,71.89
2018-04-29T05:40:14.497Z,69.81
2018-04-29T05:41:13.758Z,68.21
2018-04-29T05:42:13.757Z,67.1
2018-04-29T05:43:13.502Z,64.34
2018-04-29T05:44:14.152Z,63.67
2018-04-29T05:45:14.962Z,62.16
2018-04-29T05:46:13.764Z,62.54
2018-04-29T05:47:13.767Z,62.74
2018-04-29T05:48:13.518Z,63.22
2018-04-29T05:49:13.769Z,62.26
2018-04-29T05:50:14.872Z,61.49
2018-04-29T05:51:13.780Z,59.59
2018-04-29T05:52:13.783Z,59.3
2018-04-29T05:53:13.787Z,58.72
2018-04-29T05:54:13.788Z,58.37
2018-04-29T05:55:14.861Z,56.85
2018-04-29T05:56:13.802Z,54.44
2018-04-29T05:57:13.804Z,53.89
2018-04-29T05:58:13.810Z,53.99
2018-04-29T05:59:13.572Z,52.86
2018-04-29T06:00:15.177Z,52.19
2018-04-29T06:01:13.904Z,52.31
2018-04-29T06:02:13.830Z,51.37
2018-04-29T06:03:13.834Z,50.33
2018-04-29T06:04:13.840Z,49.87
2018-04-29T06:05:14.592Z,49.87
2018-04-29T06:06:13.854Z,48.74
2018-04-29T06:07:13.856Z,47.19
2018-04-29T06:08:13.863Z,46.15
2018-04-29T06:09:13.871Z,45.49
2018-04-29T06:10:14.517Z,45.59
2018-04-29T06:11:13.636Z,45.2
2018-04-29T06:12:13.888Z,44.91
2018-04-29T06:13:13.652Z,43.68
2018-04-29T06:22:45.748Z,43.17
2018-04-29T06:23:44.704Z,43.09
2018-04-29T06:24:44.706Z,41.37
2018-04-29T06:25:44.710Z,40.79
2018-04-29T06:26:44.467Z,41.17
2018-04-29T06:27:44.724Z,40.89
2018-04-29T06:28:44.738Z,40.79
2018-04-29T06:29:44.738Z,40.89
2018-04-29T06:30:44.750Z,40.89
2018-04-29T06:31:44.497Z,41.27
2018-04-29T06:32:44.501Z,40.13
2018-04-29T06:33:44.759Z,40.81
2018-04-29T06:34:44.764Z,39.94
2018-04-29T06:35:44.556Z,39.84
2018-04-29T06:36:44.779Z,40.5
2018-04-29T06:37:44.790Z,41.08
2018-04-29T06:38:44.861Z,40.5
2018-04-29T06:39:44.878Z,40.59
2018-04-29T06:40:44.567Z,39.92
2018-04-29T06:41:44.820Z,39.72
2018-04-29T06:42:44.823Z,39.82
2018-04-29T06:43:44.594Z,39.43
2018-04-29T06:44:44.845Z,40.21
2018-04-29T06:45:44.843Z,40.67
2018-04-29T06:46:44.637Z,41.33
2018-04-29T06:47:44.864Z,43.15
2018-04-29T06:48:44.860Z,43.71
2018-04-29T06:49:44.624Z,43.51
2018-04-29T06:50:44.879Z,43.44
2018-04-29T06:51:44.960Z,43.71
2018-04-29T06:52:44.646Z,45.35
2018-04-29T06:53:44.908Z,45.62
2018-04-29T06:54:44.910Z,46.39
2018-04-29T06:55:44.913Z,46.27
2018-04-29T06:56:44.932Z,47.19
2018-04-29T06:57:44.924Z,48.13
2018-04-29T06:58:44.932Z,49.65
2018-04-29T06:59:44.946Z,50.69
2018-04-29T07:00:45.095Z,51.46
2018-04-29T07:01:44.706Z,53.36
2018-04-29T07:02:44.703Z,53.62
2018-04-29T07:03:44.708Z,53.91
2018-04-29T07:04:44.712Z,54.27
2018-04-29T07:05:44.968Z,56
2018-04-29T07:06:44.719Z,55.68
2018-04-29T07:07:44.972Z,56.74
2018-04-29T07:08:44.980Z,56.93
2018-04-29T07:09:44.981Z,56.55
2018-04-29T07:10:44.818Z,56.84
2018-04-29T07:11:44.739Z,57.03
2018-04-29T07:12:44.745Z,56.74
2018-04-29T07:13:45.001Z,54.85
2018-04-29T07:14:44.748Z,53.33
2018-04-29T07:15:45.016Z,52.23
2018-04-29T07:16:44.758Z,52.33
2018-04-29T07:17:45.032Z,51
2018-04-29T07:18:45.032Z,51
2018-04-29T07:19:45.025Z,49
2018-04-29T07:20:45.031Z,48.06
2018-04-29T07:21:45.029Z,49.15
2018-04-29T07:22:44.786Z,48.57
2018-04-29T07:23:44.789Z,48.16
2018-04-29T07:24:45.041Z,48.44
2018-04-29T07:25:45.048Z,48.06
2018-04-29T07:26:45.082Z,48.74
2018-04-29T07:27:45.072Z,48.44
2018-04-29T07:28:45.215Z,47.89
2018-04-29T07:29:44.818Z,46.54
2018-04-29T07:30:44.821Z,46.08
2018-04-29T07:31:45.085Z,46.75
2018-04-29T07:32:45.088Z,45.89
2018-04-29T07:33:45.085Z,45.5
2018-04-29T07:34:44.851Z,44.63
2018-04-29T07:35:45.097Z,45.42
2018-04-29T07:36:45.108Z,43.71
2018-04-29T07:37:45.108Z,43.61
2018-04-29T07:38:45.110Z,44.57
2018-04-29T07:39:45.223Z,44.75
2018-04-29T07:40:44.880Z,44.75
2018-04-29T07:41:45.140Z,45.59
2018-04-29T07:42:44.882Z,44.92
2018-04-29T07:43:44.890Z,45.59
2018-04-29T07:44:45.145Z,45.48
2018-04-29T07:45:45.148Z,46.15
2018-04-29T07:46:45.155Z,44.53
2018-04-29T07:47:45.162Z,44.17
2018-04-29T07:48:45.164Z,42.83
2018-04-29T07:49:45.169Z,42.37
2018-04-29T07:50:45.184Z,40.65
2018-04-29T07:51:44.947Z,41.06
2018-04-29T07:52:45.349Z,40.09
2018-04-29T07:53:44.948Z,39.82
2018-04-29T07:54:45.208Z,39.14
2018-04-29T07:55:45.210Z,39.94
2018-04-29T07:56:44.979Z,38.58
2018-04-29T07:57:45.216Z,38.29
2018-04-29T07:58:45.224Z,39.43
2018-04-29T07:59:45.230Z,39.16
2018-04-29T08:00:45.022Z,38.48
2018-04-29T08:01:45.247Z,39.06
2018-04-29T08:02:45.246Z,37.53
2018-04-29T08:03:45.012Z,37.45
2018-04-29T08:04:45.264Z,36.79
2018-04-29T08:05:45.042Z,36.77
2018-04-29T08:06:45.404Z,36.69
2018-04-29T08:07:45.283Z,36.89
2018-04-29T08:08:45.289Z,36.5
2018-04-29T08:09:45.306Z,36.79
2018-04-29T08:10:45.062Z,37.45
2018-04-29T08:11:45.310Z,38.5
2018-04-29T08:12:45.079Z,38.5
2018-04-29T08:13:45.097Z,37.63
2018-04-29T08:14:45.332Z,38.42
2018-04-29T08:15:45.401Z,38.34
2018-04-29T08:16:45.347Z,36.5
2018-04-29T08:17:45.360Z,36.4
2018-04-29T08:18:45.363Z,36.69
2018-04-29T08:19:45.376Z,37.37
2018-04-29T08:20:45.373Z,37.3
2018-04-29T08:21:45.388Z,35.96
2018-04-29T08:22:45.159Z,35.78
2018-04-29T08:23:45.160Z,34.82
2018-04-29T08:24:45.161Z,34.7
2018-04-29T08:25:45.161Z,34.9
2018-04-29T08:26:45.167Z,34.7
2018-04-29T08:27:45.421Z,34.61
2018-04-29T08:28:45.427Z,34.61
2018-04-29T08:29:45.189Z,35.78
2018-04-29T08:30:45.444Z,34.24
2018-04-29T08:31:45.452Z,33.07
2018-04-29T08:32:45.460Z,33.15
2018-04-29T08:33:45.467Z,34.7
2018-04-29T08:34:45.506Z,34.52
2018-04-29T08:35:45.486Z,34.32
2018-04-29T08:36:45.496Z,33.36
2018-04-29T08:37:45.493Z,34.05
2018-04-29T08:38:45.498Z,34.52
2018-04-29T08:39:45.505Z,36.13
2018-04-29T08:40:45.265Z,37.18
2018-04-29T08:41:45.348Z,38.81
2018-04-29T08:42:45.533Z,38.58
2018-04-29T08:43:45.296Z,40.11
2018-04-29T08:44:45.295Z,41.04
2018-04-29T08:45:45.556Z,43.24
2018-04-29T08:46:45.563Z,42.37
2018-04-29T08:47:45.563Z,43.61
2018-04-29T08:48:45.323Z,44.65
2018-04-29T08:49:45.582Z,44.07
2018-04-29T08:50:45.395Z,44.73
2018-04-29T08:51:45.599Z,44.82
2018-04-29T08:52:45.601Z,45.4
2018-04-29T08:53:45.619Z,45.69
2018-04-29T08:54:45.614Z,46.27
2018-04-29T08:55:45.620Z,45.5
2018-04-29T08:56:45.376Z,46.66
2018-04-29T08:57:45.630Z,46.08
2018-04-29T08:58:45.635Z,46.75
2018-04-29T08:59:45.645Z,46.95
2018-04-29T09:00:45.651Z,46.37
2018-04-29T09:01:45.416Z,46.17
2018-04-29T09:02:45.669Z,46.27
2018-04-29T09:03:45.535Z,46.27
2018-04-29T09:04:45.681Z,46.17
2018-04-29T09:05:45.430Z,46.17
2018-04-29T09:06:45.429Z,46.95
2018-04-29T09:07:45.684Z,47.14
2018-04-29T09:08:45.740Z,47.22
2018-04-29T09:09:45.703Z,46.95
2018-04-29T09:10:45.447Z,46.92
2018-04-29T09:11:45.719Z,47.81
2018-04-29T09:12:45.707Z,47.24
2018-04-29T09:13:45.717Z,46.27
2018-04-29T09:14:45.722Z,46.56
2018-04-29T09:15:45.732Z,46.75
2018-04-29T09:16:45.734Z,46.75
2018-04-29T09:17:45.735Z,45.59
2018-04-29T09:18:45.734Z,46.17
2018-04-29T09:19:45.738Z,46.75
2018-04-29T09:20:45.738Z,46.56
2018-04-29T09:21:45.745Z,47.14
2018-04-29T09:22:45.752Z,45.62
2018-04-29T09:23:47.409Z,45.81
2018-04-29T09:24:45.755Z,45.62
2018-04-29T09:25:45.766Z,45.62
2018-04-29T09:26:45.769Z,46.3
2018-04-29T09:27:45.772Z,45.89
2018-04-29T09:28:45.785Z,46.37
2018-04-29T09:29:45.783Z,46.2
2018-04-29T09:30:45.787Z,45.52
2018-04-29T09:31:45.788Z,45.52
2018-04-29T09:32:45.548Z,45.81
2018-04-29T09:33:45.804Z,45.79
2018-04-29T09:34:45.802Z,46.17
2018-04-29T09:35:45.558Z,46.17
2018-04-29T09:36:45.811Z,45.5
2018-04-29T09:37:45.565Z,45.59
2018-04-29T09:38:45.902Z,45.89
2018-04-29T09:39:45.568Z,46.85
2018-04-29T09:40:45.574Z,46.27
2018-04-29T09:41:45.581Z,46.2
2018-04-29T09:42:45.581Z,45.98
2018-04-29T09:43:45.722Z,45.5
2018-04-29T09:44:45.838Z,45.62
2018-04-29T09:45:45.858Z,45.72
2018-04-29T09:46:45.601Z,44.75
2018-04-29T09:47:45.859Z,45.33
2018-04-29T09:48:46.021Z,44.46
2018-04-29T09:49:45.860Z,45.14
2018-04-29T09:50:45.864Z,44.67
2018-04-29T09:51:45.869Z,44.77
2018-04-29T09:52:45.872Z,45.06
2018-04-29T09:53:45.873Z,44.29
2018-04-29T09:54:45.630Z,44.96
2018-04-29T09:55:45.886Z,44.29
2018-04-29T09:56:45.887Z,43.92
2018-04-29T09:57:45.642Z,45.83
2018-04-29T09:58:45.647Z,44.77
2018-04-29T09:59:45.652Z,44.48
2018-04-29T10:00:45.913Z,44.02
2018-04-29T10:01:45.658Z,43.63
2018-04-29T10:02:45.916Z,43.34
2018-04-29T10:03:45.919Z,43.73
2018-04-29T10:04:45.932Z,43.44
2018-04-29T10:05:45.923Z,42.86
2018-04-29T10:06:45.950Z,43.17
2018-04-29T10:07:45.937Z,42.96
2018-04-29T10:08:45.949Z,43.15
2018-04-29T10:09:45.697Z,43.44
2018-04-29T10:10:45.948Z,43.44
2018-04-29T10:11:45.959Z,42.96
2018-04-29T10:12:45.957Z,43.05
2018-04-29T10:13:45.965Z,43.46
2018-04-29T10:14:45.965Z,43.15
2018-04-29T10:15:46.056Z,43.27
2018-04-29T10:16:45.724Z,42.4
2018-04-29T10:17:45.977Z,42.78
2018-04-29T10:18:45.747Z,42.4
2018-04-29T10:19:46.408Z,42
2018-04-29T10:20:45.996Z,42.3
2018-04-29T10:21:46.001Z,42.1
2018-04-29T10:22:45.822Z,43.27
2018-04-29T10:53:28.839Z,39.9
2018-04-29T10:54:28.834Z,40.28
2018-04-29T10:55:28.531Z,40.48
2018-04-29T10:56:28.520Z,40.48
2018-04-29T10:57:28.769Z,40.77
2018-04-29T10:58:28.777Z,40.4
2018-04-29T10:59:28.532Z,40.21
2018-04-29T11:00:28.781Z,41.56
2018-04-29T11:01:28.842Z,40.59
2018-04-29T11:02:28.786Z,40.89
2018-04-29T11:03:28.812Z,41.56
2018-04-29T11:04:28.550Z,41.17
2018-04-29T11:05:28.545Z,41.47
2018-04-29T11:06:28.550Z,39.92
2018-04-29T11:07:28.557Z,38.85
2018-04-29T11:08:28.559Z,39.84
2018-04-29T11:09:28.828Z,38.58
2018-04-29T11:10:28.580Z,41.37
2018-04-29T11:11:28.833Z,40.99
2018-04-29T11:12:28.580Z,40.69
2018-04-29T11:13:28.580Z,39.84
2018-04-29T11:14:28.584Z,39.26
2018-04-29T11:15:28.856Z,40.23
2018-04-29T11:16:28.839Z,41.49
2018-04-29T11:17:28.595Z,41.58
2018-04-29T11:18:28.849Z,41.58
2018-04-29T11:19:28.861Z,41
2018-04-29T11:20:28.863Z,41.58
2018-04-29T11:21:28.617Z,40.23
2018-04-29T11:22:28.683Z,39.94
2018-04-29T11:23:29.029Z,39.65
2018-04-29T11:24:28.879Z,38.7
2018-04-29T11:25:28.905Z,38.99
2018-04-29T11:26:28.890Z,38.02
2018-04-29T11:27:28.897Z,37.71
2018-04-29T11:28:28.910Z,37.9
2018-04-29T11:29:28.655Z,38.19
2018-04-29T11:30:28.664Z,38.39
2018-04-29T11:31:28.918Z,39.45
2018-04-29T11:32:28.924Z,39.65
2018-04-29T11:33:28.927Z,40.52
2018-04-29T11:34:28.685Z,40.03
2018-04-29T11:35:28.941Z,38.96
2018-04-29T11:36:28.940Z,37.71
2018-04-29T11:37:28.705Z,38.87
2018-04-29T11:38:28.961Z,38.19
2018-04-29T11:39:28.958Z,37.32
2018-04-29T11:40:29.202Z,37.13
2018-04-29T11:41:28.974Z,38
2018-04-29T11:42:28.993Z,38.39
2018-04-29T11:43:28.979Z,40.81
2018-04-29T11:44:28.734Z,39.24
2018-04-29T11:45:28.746Z,38.37
2018-04-29T11:46:28.992Z,39.04
2018-04-29T11:47:28.745Z,39.43
2018-04-29T11:48:28.769Z,39.82
2018-04-29T11:49:29.010Z,39.92
2018-04-29T11:50:29.026Z,39.94
2018-04-29T11:51:28.776Z,38.48
2018-04-29T11:52:29.025Z,38.19
2018-04-29T11:53:29.026Z,36.83
2018-04-29T11:54:29.031Z,37.53
2018-04-29T11:55:29.040Z,38.99
2018-04-29T11:56:29.046Z,38.89
2018-04-29T11:57:29.046Z,39.76
2018-04-29T11:58:28.802Z,38.6
2018-04-29T11:59:28.811Z,38.4
2018-04-29T12:00:29.075Z,37.82
2018-04-29T12:01:29.123Z,36.66
2018-04-29T12:02:29.168Z,37.05
2018-04-29T12:03:29.079Z,37.45
2018-04-29T12:04:28.837Z,36.56
2018-04-29T12:05:29.094Z,38.21
2018-04-29T12:06:29.094Z,38.6
2018-04-29T12:07:29.099Z,35.98
2018-04-29T12:08:31.013Z,38.5
2018-04-29T12:09:29.117Z,38.13
2018-04-29T12:10:29.125Z,36.38
2018-04-29T12:11:29.162Z,36
2018-04-29T12:12:29.143Z,35.71
2018-04-29T12:13:28.883Z,36
2018-04-29T12:14:29.149Z,37.07
2018-04-29T12:15:29.149Z,39.22
2018-04-29T12:16:28.951Z,38.25
2018-04-29T12:17:29.155Z,36.3
2018-04-29T12:18:29.180Z,36.69
2018-04-29T12:19:29.173Z,37.49
2018-04-29T12:20:29.187Z,35.64
2018-04-29T12:21:28.928Z,34.97
2018-04-29T12:22:28.929Z,34.58
2018-04-29T12:23:30.794Z,34.77
2018-04-29T12:24:28.969Z,34.97
2018-04-29T12:25:28.945Z,36.15
2018-04-29T12:26:28.951Z,34.59
2018-04-29T12:27:29.221Z,34.5
2018-04-29T12:28:29.221Z,35.27
2018-04-29T12:29:28.969Z,34.88
2018-04-29T12:30:28.973Z,34.59
2018-04-29T12:31:29.230Z,34.19
2018-04-29T12:32:29.231Z,34.67
2018-04-29T12:33:29.284Z,34.28
2018-04-29T12:34:28.996Z,33.9
2018-04-29T12:35:29.255Z,33.72
2018-04-29T12:36:29.261Z,33.14
2018-04-29T12:37:29.012Z,33.91
2018-04-29T12:38:29.269Z,33.33
2018-04-29T12:39:29.272Z,37.7
2018-04-29T12:40:29.287Z,35.08
2018-04-29T12:41:29.285Z,33.91
2018-04-29T12:42:29.293Z,34.3
2018-04-29T12:43:29.319Z,33.44
2018-04-29T12:44:29.306Z,33.15
2018-04-29T12:45:29.318Z,33.15
2018-04-29T12:46:29.313Z,33.34
2018-04-29T12:47:29.319Z,32.76
2018-04-29T12:48:29.077Z,33.25
2018-04-29T12:49:29.368Z,33.06
2018-04-29T12:50:29.343Z,33.54
2018-04-29T12:51:29.344Z,32.18
2018-04-29T12:52:29.099Z,33.25
2018-04-29T12:53:29.104Z,32.47
2018-04-29T12:54:29.110Z,32.28
2018-04-29T12:55:29.383Z,32.08
2018-04-29T12:56:29.386Z,32.08
2018-04-29T12:57:29.381Z,32.76
2018-04-29T12:58:29.386Z,33.34
2018-04-29T12:59:29.394Z,34.88
2018-04-29T13:00:29.395Z,34.5
2018-04-29T13:01:29.402Z,34.11
2018-04-29T13:02:29.405Z,34.3
2018-04-29T13:03:29.413Z,33.23
2018-04-29T13:04:29.174Z,32.28
2018-04-29T13:05:29.428Z,32.26
2018-04-29T13:06:29.187Z,32.07
2018-04-29T13:07:29.435Z,32.07
2018-04-29T13:08:29.452Z,32.17
2018-04-29T13:09:29.448Z,31.38
2018-04-29T13:10:29.452Z,32.07
2018-04-29T13:11:29.468Z,33.81
2018-04-29T13:12:29.469Z,36.05
2018-04-29T13:13:29.473Z,33.23
2018-04-29T13:14:29.485Z,34.5
2018-04-29T13:15:29.245Z,33.62
2018-04-29T13:16:29.491Z,30.8
2018-04-29T13:17:29.572Z,30.22
2018-04-29T13:18:29.498Z,30.02
2018-04-29T13:19:29.509Z,31.19
2018-04-29T13:20:29.515Z,31.38
2018-04-29T13:21:29.634Z,30.71
2018-04-29T13:22:29.276Z,30.9
2018-04-29T13:23:29.573Z,31.68
2018-04-29T13:24:29.533Z,32.65
2018-04-29T13:25:29.544Z,31.97
2018-04-29T13:26:29.544Z,30.9
2018-04-29T13:27:30.235Z,31.79
2018-04-29T13:28:29.684Z,32.28
2018-04-29T13:29:29.595Z,31.3
2018-04-29T13:30:29.569Z,30.91
2018-04-29T13:31:29.328Z,31.1
2018-04-29T13:32:29.587Z,31.19
2018-04-29T13:33:29.590Z,31.08
2018-04-29T13:34:29.341Z,31.08
2018-04-29T13:35:29.614Z,32.54
2018-04-29T13:36:29.628Z,31.95
2018-04-29T13:37:29.364Z,32.26
2018-04-29T13:38:29.612Z,32.75
2018-04-29T13:39:29.875Z,32.17
2018-04-29T13:40:29.378Z,33.04
2018-04-29T13:41:29.380Z,33.62
2018-04-29T13:42:29.843Z,33.33
2018-04-29T13:43:29.706Z,33.72
2018-04-29T13:44:29.401Z,33.91
2018-04-29T13:45:29.664Z,33.33
2018-04-29T13:46:29.740Z,32.45
2018-04-29T13:47:29.424Z,31.19
2018-04-29T13:48:29.690Z,30.71
2018-04-29T13:49:29.676Z,32.35
2018-04-29T13:50:29.444Z,33.33